createdAt,value
2023-03-18T00:02:12.084Z,4.43
2023-03-18T00:05:00.550Z,4.22
2023-03-18T00:07:50.510Z,4.49
2023-03-18T00:10:39.746Z,4.79
2023-03-18T00:13:28.430Z,4.96
2023-03-18T00:16:17.396Z,5.10
2023-03-18T00:19:06.776Z,5.16
2023-03-18T00:21:55.880Z,5.00
2023-03-18T00:24:46.021Z,5.00
2023-03-18T00:27:35.069Z,4.98
2023-03-18T00:30:23.986Z,5.17
2023-03-18T00:33:12.809Z,4.79
2023-03-18T00:36:01.205Z,4.37
2023-03-18T00:38:51.174Z,4.41
2023-03-18T00:41:41.145Z,4.10
2023-03-18T00:44:30.759Z,3.92
2023-03-18T00:47:19.174Z,4.05
2023-03-18T00:50:09.448Z,4.15
2023-03-18T00:52:57.781Z,4.17
2023-03-18T00:55:46.548Z,4.09
2023-03-18T00:58:36.925Z,4.03
2023-03-18T01:01:27.323Z,4.26
2023-03-18T01:04:15.772Z,4.33
2023-03-18T01:07:04.179Z,4.42
2023-03-18T01:09:52.753Z,4.51
2023-03-18T01:12:42.179Z,4.47
2023-03-18T01:15:31.942Z,4.46
2023-03-18T01:18:20.781Z,4.49
2023-03-18T01:21:09.802Z,4.59
2023-03-18T01:24:04.422Z,4.52
2023-03-18T01:26:55.043Z,4.47
2023-03-18T01:29:44.311Z,4.11
2023-03-18T01:32:39.134Z,4.30
2023-03-18T01:35:28.472Z,4.32
2023-03-18T01:38:17.438Z,4.36
2023-03-18T01:41:06.134Z,4.40
2023-03-18T01:43:55.631Z,4.41
2023-03-18T01:46:45.944Z,4.25
2023-03-18T01:49:38.196Z,4.25
2023-03-18T01:52:28.841Z,4.01
2023-03-18T01:55:20.595Z,3.67
2023-03-18T01:58:11.744Z,3.55
2023-03-18T02:01:02.954Z,3.37
2023-03-18T02:03:52.329Z,3.37
2023-03-18T02:06:42.380Z,3.13
2023-03-18T02:09:31.289Z,3.15
2023-03-18T02:12:24.255Z,3.31
2023-03-18T02:15:16.605Z,3.28
2023-03-18T02:18:09.108Z,3.05
2023-03-18T02:21:18.999Z,3.03
2023-03-18T02:24:21.010Z,2.95
2023-03-18T02:27:19.380Z,2.89
2023-03-18T02:30:13.044Z,2.64
2023-03-18T02:33:02.916Z,2.75
2023-03-18T02:35:53.985Z,2.76
2023-03-18T02:38:43.254Z,2.76
2023-03-18T02:41:36.417Z,2.88
2023-03-18T02:44:27.019Z,2.74
2023-03-18T02:47:33.768Z,2.76
2023-03-18T02:50:22.404Z,2.93
2023-03-18T02:53:13.171Z,2.63
2023-03-18T02:56:02.169Z,2.87
2023-03-18T02:58:51.831Z,2.80
2023-03-18T03:01:43.855Z,2.81
2023-03-18T03:04:33.025Z,2.93
2023-03-18T03:07:21.498Z,3.09
2023-03-18T03:10:14.690Z,3.26
2023-03-18T03:13:04.592Z,3.35
2023-03-18T03:15:54.242Z,3.00
2023-03-18T03:18:44.532Z,2.65
2023-03-18T03:21:33.513Z,2.55
2023-03-18T03:24:22.356Z,2.78
2023-03-18T03:27:11.076Z,2.96
2023-03-18T03:29:59.497Z,3.12
2023-03-18T03:32:48.399Z,3.21
2023-03-18T03:35:40.054Z,3.19
2023-03-18T03:38:28.498Z,3.06
2023-03-18T03:41:17.182Z,2.95
2023-03-18T03:44:06.272Z,2.90
2023-03-18T03:46:55.377Z,2.56
2023-03-18T03:49:44.604Z,2.65
2023-03-18T03:52:35.100Z,2.63
2023-03-18T03:55:24.241Z,2.77
2023-03-18T03:58:15.192Z,2.92
2023-03-18T04:01:06.649Z,3.01
2023-03-18T04:03:55.812Z,3.06
2023-03-18T04:06:44.397Z,3.01
2023-03-18T04:09:36.243Z,2.84
2023-03-18T04:12:25.300Z,2.57
2023-03-18T04:15:22.091Z,2.25
2023-03-18T04:18:13.341Z,2.25
2023-03-18T04:21:02.896Z,2.08
2023-03-18T04:24:00.923Z,2.20
2023-03-18T04:26:51.412Z,2.11
2023-03-18T04:29:39.813Z,2.08
2023-03-18T04:32:28.414Z,2.02
2023-03-18T04:35:17.501Z,2.05
2023-03-18T04:38:06.550Z,1.93
2023-03-18T04:40:55.286Z,1.81
2023-03-18T04:43:45.687Z,1.75
2023-03-18T04:46:34.141Z,1.73
2023-03-18T04:49:23.380Z,1.55
2023-03-18T04:52:12.580Z,1.45
2023-03-18T04:55:01.704Z,1.38
2023-03-18T04:57:51.187Z,1.48
2023-03-18T05:00:45.206Z,1.56
2023-03-18T05:03:44.278Z,1.67
2023-03-18T05:06:34.673Z,1.55
2023-03-18T05:09:31.438Z,1.76
2023-03-18T05:12:20.870Z,1.62
2023-03-18T05:15:11.963Z,1.75
2023-03-18T05:18:06.516Z,1.81
2023-03-18T05:20:55.568Z,1.72
2023-03-18T05:23:45.472Z,1.72
2023-03-18T05:26:34.178Z,1.81
2023-03-18T05:29:23.912Z,2.01
2023-03-18T05:32:19.629Z,2.25
2023-03-18T05:35:14.601Z,2.25
2023-03-18T05:38:11.153Z,2.14
2023-03-18T05:40:59.742Z,2.02
2023-03-18T05:43:54.727Z,2.10
2023-03-18T05:46:43.301Z,2.10
2023-03-18T05:49:39.360Z,1.98
2023-03-18T05:52:42.946Z,1.90
2023-03-18T05:55:39.986Z,1.76
2023-03-18T05:58:31.293Z,1.80
2023-03-18T06:01:34.462Z,2.09
2023-03-18T06:04:24.975Z,1.95
2023-03-18T06:07:15.241Z,2.04
2023-03-18T06:10:05.557Z,1.92
2023-03-18T06:12:55.409Z,2.01
2023-03-18T06:15:45.644Z,2.01
2023-03-18T06:18:35.321Z,2.23
2023-03-18T06:21:23.706Z,2.39
2023-03-18T06:24:13.327Z,2.55
2023-03-18T06:27:03.781Z,2.51
2023-03-18T06:29:52.484Z,2.58
2023-03-18T06:32:41.483Z,2.66
2023-03-18T06:35:31.672Z,2.40
2023-03-18T06:38:20.883Z,2.56
2023-03-18T06:41:09.700Z,2.58
2023-03-18T06:44:04.193Z,2.66
2023-03-18T06:46:53.718Z,2.80
2023-03-18T06:49:43.486Z,2.90
2023-03-18T06:52:38.426Z,2.96
2023-03-18T06:55:32.326Z,2.86
2023-03-18T06:58:21.278Z,2.84
2023-03-18T07:01:21.439Z,2.90
2023-03-18T07:04:11.996Z,3.10
2023-03-18T07:07:01.460Z,3.09
2023-03-18T07:09:50.788Z,3.19
2023-03-18T07:12:40.270Z,3.22
2023-03-18T07:15:28.941Z,3.42
2023-03-18T07:18:20.491Z,3.63
2023-03-18T07:21:09.663Z,3.78
2023-03-18T07:23:58.262Z,3.95
2023-03-18T07:26:46.612Z,4.13
2023-03-18T07:29:35.118Z,4.16
2023-03-18T07:32:23.694Z,4.27
2023-03-18T07:35:14.784Z,4.43
2023-03-18T07:38:03.318Z,4.51
2023-03-18T07:40:52.434Z,4.57
2023-03-18T07:43:41.093Z,4.60
2023-03-18T07:46:29.622Z,4.71
2023-03-18T07:49:20.603Z,4.82
2023-03-18T07:52:11.020Z,5.00
2023-03-18T07:54:59.579Z,5.16
2023-03-18T07:57:49.157Z,5.29
2023-03-18T08:00:37.980Z,5.43
2023-03-18T08:03:26.420Z,5.53
2023-03-18T08:06:16.292Z,5.66
2023-03-18T08:09:09.048Z,5.80
2023-03-18T08:11:57.645Z,5.93
2023-03-18T08:14:46.055Z,6.07
2023-03-18T08:17:34.521Z,6.23
2023-03-18T08:20:23.317Z,6.39
2023-03-18T08:23:12.094Z,6.56
2023-03-18T08:26:02.056Z,6.72
2023-03-18T08:28:50.665Z,6.86
2023-03-18T08:31:39.222Z,6.98
2023-03-18T08:34:27.733Z,7.10
2023-03-18T08:37:16.085Z,7.21
2023-03-18T08:40:05.169Z,7.35
2023-03-18T08:42:55.027Z,7.48
2023-03-18T08:45:43.560Z,7.63
2023-03-18T08:48:32.218Z,7.75
2023-03-18T08:51:22.216Z,7.88
2023-03-18T08:54:11.414Z,7.98
2023-03-18T08:57:00.686Z,8.09
2023-03-18T08:59:50.595Z,8.21
2023-03-18T09:02:38.964Z,8.34
2023-03-18T09:05:27.583Z,8.49
2023-03-18T09:08:16.149Z,8.59
2023-03-18T09:11:04.616Z,8.62
2023-03-18T09:13:53.718Z,8.63
2023-03-18T09:16:43.777Z,8.81
2023-03-18T09:19:32.180Z,8.94
2023-03-18T09:22:20.655Z,9.04
2023-03-18T09:25:09.730Z,9.14
2023-03-18T09:27:58.138Z,9.25
2023-03-18T09:30:47.081Z,9.39
2023-03-18T09:33:37.756Z,9.52
2023-03-18T09:36:26.101Z,9.63
2023-03-18T09:39:14.526Z,9.72
2023-03-18T09:42:17.098Z,9.85
2023-03-18T09:45:12.530Z,9.93
2023-03-18T09:48:16.862Z,10.07
2023-03-18T09:51:12.165Z,10.18
2023-03-18T09:54:03.633Z,10.23
2023-03-18T09:56:53.425Z,10.39
2023-03-18T09:59:44.747Z,10.38
2023-03-18T10:02:37.251Z,10.55
2023-03-18T10:05:30.774Z,10.68
2023-03-18T10:08:23.532Z,10.80
2023-03-18T10:11:18.654Z,10.88
2023-03-18T10:14:38.840Z,10.82
2023-03-18T10:17:31.661Z,10.89
2023-03-18T10:20:21.971Z,11.09
2023-03-18T10:23:21.526Z,11.23
2023-03-18T10:26:17.521Z,11.33
2023-03-18T10:29:30.577Z,11.40
2023-03-18T10:32:46.462Z,11.55
2023-03-18T10:35:39.926Z,11.71
2023-03-18T10:38:31.894Z,11.80
2023-03-18T10:41:24.937Z,11.96
2023-03-18T10:44:19.818Z,12.13
2023-03-18T10:47:15.420Z,12.27
2023-03-18T10:50:07.088Z,12.48
2023-03-18T10:52:58.272Z,12.56
2023-03-18T10:55:57.439Z,12.57
2023-03-18T10:58:47.253Z,12.37
2023-03-18T11:01:37.484Z,12.41
2023-03-18T11:04:28.465Z,12.40
2023-03-18T11:07:19.808Z,12.60
2023-03-18T11:10:18.094Z,12.88
2023-03-18T11:13:07.856Z,12.69
2023-03-18T11:15:58.669Z,12.67
2023-03-18T11:18:47.682Z,12.82
2023-03-18T11:21:39.117Z,13.12
2023-03-18T11:24:38.775Z,13.31
2023-03-18T11:27:35.481Z,13.42
2023-03-18T11:30:34.454Z,13.48
2023-03-18T11:33:26.984Z,13.38
2023-03-18T11:36:19.352Z,13.39
2023-03-18T11:39:08.153Z,13.51
2023-03-18T11:41:56.607Z,13.58
2023-03-18T11:44:45.031Z,13.75
2023-03-18T11:47:36.558Z,13.85
2023-03-18T11:50:27.493Z,13.92
2023-03-18T11:53:18.689Z,13.89
2023-03-18T11:56:12.645Z,13.95
2023-03-18T11:59:18.716Z,14.17
2023-03-18T12:02:32.198Z,14.72
2023-03-18T12:05:35.727Z,14.70
2023-03-18T12:08:33.050Z,14.73
2023-03-18T12:11:41.215Z,14.81
2023-03-18T12:14:36.272Z,14.75
2023-03-18T12:17:32.916Z,14.92
2023-03-18T12:20:44.818Z,15.18
2023-03-18T12:23:44.018Z,15.30
2023-03-18T12:26:36.480Z,15.20
2023-03-18T12:29:37.042Z,15.33
2023-03-18T12:32:28.183Z,15.24
2023-03-18T12:35:39.749Z,15.13
2023-03-18T12:39:00.576Z,15.18
2023-03-18T12:41:54.794Z,15.25
2023-03-18T12:44:59.659Z,15.34
2023-03-18T12:47:50.794Z,15.36
2023-03-18T12:50:41.155Z,15.26
2023-03-18T12:53:31.851Z,15.30
2023-03-18T12:56:23.690Z,15.27
2023-03-18T12:59:16.578Z,15.34
2023-03-18T13:02:38.644Z,15.41
2023-03-18T13:05:36.815Z,15.45
2023-03-18T13:08:56.584Z,15.78
2023-03-18T13:11:55.652Z,15.69
2023-03-18T13:14:56.377Z,15.80
2023-03-18T13:17:45.990Z,15.86
2023-03-18T13:20:37.741Z,15.88
2023-03-18T13:23:42.451Z,16.04
2023-03-18T13:26:43.476Z,16.13
2023-03-18T13:29:39.008Z,16.16
2023-03-18T13:32:42.134Z,16.14
2023-03-18T13:35:44.920Z,16.02
2023-03-18T13:39:01.185Z,15.96
2023-03-18T13:41:59.736Z,16.11
2023-03-18T13:44:55.304Z,16.14
2023-03-18T13:47:44.492Z,16.21
2023-03-18T13:50:35.933Z,16.41
2023-03-18T13:53:26.649Z,16.72
2023-03-18T13:56:29.023Z,16.98
2023-03-18T13:59:44.669Z,16.95
2023-03-18T14:02:43.707Z,17.25
2023-03-18T14:05:40.385Z,17.44
2023-03-18T14:08:50.745Z,17.49
2023-03-18T14:11:50.257Z,17.38
2023-03-18T14:15:02.920Z,17.25
2023-03-18T14:17:58.215Z,17.25
2023-03-18T14:20:47.818Z,17.37
2023-03-18T14:23:43.290Z,17.41
2023-03-18T14:26:32.341Z,17.39
2023-03-18T14:29:26.663Z,17.54
2023-03-18T14:32:32.074Z,17.82
2023-03-18T14:35:28.794Z,18.01
2023-03-18T14:38:20.446Z,18.36
2023-03-18T14:41:16.769Z,18.83
2023-03-18T14:44:10.149Z,19.13
2023-03-18T14:47:01.145Z,19.22
2023-03-18T14:49:52.138Z,19.40
2023-03-18T14:52:43.807Z,19.90
2023-03-18T14:55:34.173Z,20.25
2023-03-18T14:58:24.223Z,20.77
2023-03-18T15:01:14.061Z,21.12
2023-03-18T15:04:03.082Z,21.00
2023-03-18T15:06:53.216Z,21.01
2023-03-18T15:09:46.357Z,21.41
2023-03-18T15:12:34.780Z,21.59
2023-03-18T15:15:25.144Z,21.69
2023-03-18T15:18:19.664Z,21.76
2023-03-18T15:21:11.516Z,21.79
2023-03-18T15:24:01.962Z,22.05
2023-03-18T15:26:59.098Z,21.97
2023-03-18T15:29:52.628Z,21.99
2023-03-18T15:32:46.138Z,21.88
2023-03-18T15:35:35.705Z,21.89
2023-03-18T15:38:28.783Z,21.45
2023-03-18T15:41:18.027Z,21.50
2023-03-18T15:44:16.504Z,21.55
2023-03-18T15:47:07.473Z,21.52
2023-03-18T15:49:57.594Z,21.54
2023-03-18T15:52:47.077Z,21.43
2023-03-18T15:55:37.538Z,21.46
2023-03-18T15:58:27.899Z,21.32
2023-03-18T16:01:19.683Z,21.07
2023-03-18T16:04:12.297Z,20.90
2023-03-18T16:07:01.146Z,20.71
2023-03-18T16:09:51.171Z,20.51
2023-03-18T16:12:41.063Z,20.22
2023-03-18T16:15:30.022Z,19.88
2023-03-18T16:18:20.049Z,19.76
2023-03-18T16:21:08.908Z,19.64
2023-03-18T16:23:57.298Z,19.51
2023-03-18T16:26:46.261Z,19.40
2023-03-18T16:29:38.196Z,19.29
2023-03-18T16:32:28.497Z,18.96
2023-03-18T16:35:20.455Z,18.82
2023-03-18T16:38:14.236Z,18.69
2023-03-18T16:41:03.027Z,18.51
2023-03-18T16:43:51.489Z,18.39
2023-03-18T16:46:41.316Z,18.19
2023-03-18T16:49:31.909Z,18.10
2023-03-18T16:52:21.837Z,18.10
2023-03-18T16:55:13.289Z,17.95
2023-03-18T16:58:01.812Z,17.88
2023-03-18T17:00:51.262Z,17.82
2023-03-18T17:03:39.984Z,17.75
2023-03-18T17:06:28.388Z,17.65
2023-03-18T17:09:18.136Z,17.50
2023-03-18T17:12:07.655Z,17.34
2023-03-18T17:14:57.175Z,17.14
2023-03-18T17:17:45.890Z,17.02
2023-03-18T17:20:34.791Z,16.86
2023-03-18T17:23:25.383Z,16.74
2023-03-18T17:26:16.250Z,16.62
2023-03-18T17:29:04.990Z,16.48
2023-03-18T17:31:53.752Z,16.34
2023-03-18T17:34:42.181Z,16.18
2023-03-18T17:37:30.573Z,16.05
2023-03-18T17:40:20.552Z,15.92
2023-03-18T17:43:18.640Z,15.80
2023-03-18T17:46:07.180Z,15.69
2023-03-18T17:48:56.069Z,15.60
2023-03-18T17:51:46.221Z,15.58
2023-03-18T17:54:34.700Z,15.51
2023-03-18T17:57:23.025Z,15.46
2023-03-18T18:00:17.954Z,15.39
2023-03-18T18:03:11.013Z,15.23
2023-03-18T18:06:00.371Z,15.08
2023-03-18T18:08:49.833Z,14.98
2023-03-18T18:11:39.720Z,14.88
2023-03-18T18:14:31.760Z,14.80
2023-03-18T18:17:21.976Z,14.72
2023-03-18T18:20:14.877Z,14.62
2023-03-18T18:23:03.308Z,14.50
2023-03-18T18:25:51.699Z,14.38
2023-03-18T18:28:41.673Z,14.24
2023-03-18T18:31:34.085Z,14.22
2023-03-18T18:34:24.065Z,14.14
2023-03-18T18:37:12.768Z,14.03
2023-03-18T18:40:01.386Z,13.88
2023-03-18T18:42:50.541Z,13.88
2023-03-18T18:45:38.914Z,13.84
2023-03-18T18:48:30.631Z,13.74
2023-03-18T18:51:22.604Z,13.70
2023-03-18T18:54:10.940Z,13.61
2023-03-18T18:56:59.312Z,13.58
2023-03-18T18:59:47.664Z,13.46
2023-03-18T19:02:36.811Z,13.39
2023-03-18T19:05:25.191Z,13.36
2023-03-18T19:08:24.890Z,13.31
2023-03-18T19:11:13.844Z,13.25
2023-03-18T19:14:19.749Z,13.21
2023-03-18T19:17:13.519Z,13.14
2023-03-18T19:20:02.080Z,13.09
2023-03-18T19:22:51.116Z,13.03
2023-03-18T19:25:40.905Z,12.98
2023-03-18T19:28:47.862Z,12.93
2023-03-18T19:31:41.295Z,12.82
2023-03-18T19:34:31.964Z,12.77
2023-03-18T19:37:22.804Z,12.71
2023-03-18T19:40:21.339Z,12.65
2023-03-18T19:43:18.821Z,12.55
2023-03-18T19:46:07.327Z,12.50
2023-03-18T19:48:55.845Z,12.45
2023-03-18T19:51:44.735Z,12.38
2023-03-18T19:54:34.897Z,12.34
2023-03-18T19:57:25.686Z,12.28
2023-03-18T20:00:21.984Z,12.25
2023-03-18T20:03:14.012Z,12.19
2023-03-18T20:06:02.896Z,12.12
2023-03-18T20:08:51.529Z,12.04
2023-03-18T20:11:40.089Z,11.98
2023-03-18T20:14:31.271Z,11.92
2023-03-18T20:17:39.667Z,11.85
2023-03-18T20:20:30.333Z,11.71
2023-03-18T20:23:22.294Z,11.64
2023-03-18T20:26:10.877Z,11.60
2023-03-18T20:28:59.242Z,11.12
2023-03-18T20:31:47.913Z,10.97
2023-03-18T20:34:38.727Z,10.98
2023-03-18T20:37:31.052Z,10.94
2023-03-18T20:40:22.852Z,10.88
2023-03-18T20:43:15.039Z,10.86
2023-03-18T20:46:03.985Z,10.83
2023-03-18T20:48:53.647Z,10.79
2023-03-18T20:51:44.317Z,10.74
2023-03-18T20:54:33.300Z,10.30
2023-03-18T20:57:21.717Z,10.08
2023-03-18T21:00:14.616Z,9.91
2023-03-18T21:03:03.806Z,9.96
2023-03-18T21:05:53.221Z,9.88
2023-03-18T21:08:43.558Z,9.61
2023-03-18T21:11:33.618Z,9.55
2023-03-18T21:14:22.247Z,9.38
2023-03-18T21:17:17.948Z,9.29
2023-03-18T21:20:21.064Z,9.37
2023-03-18T21:23:18.962Z,9.37
2023-03-18T21:26:09.164Z,9.41
2023-03-18T21:28:58.460Z,9.39
2023-03-18T21:31:46.998Z,9.33
2023-03-18T21:34:35.358Z,9.30
2023-03-18T21:37:24.990Z,9.33
2023-03-18T21:40:18.579Z,9.35
2023-03-18T21:43:25.381Z,9.35
2023-03-18T21:46:16.178Z,9.28
2023-03-18T21:49:05.940Z,9.28
2023-03-18T21:51:54.359Z,9.30
2023-03-18T21:54:42.692Z,9.28
2023-03-18T21:57:34.913Z,9.25
2023-03-18T22:00:24.888Z,8.80
2023-03-18T22:03:14.918Z,8.63
2023-03-18T22:06:03.299Z,8.31
2023-03-18T22:08:52.229Z,8.43
2023-03-18T22:11:40.607Z,8.38
2023-03-18T22:14:29.005Z,8.30
2023-03-18T22:17:24.036Z,8.35
2023-03-18T22:20:13.941Z,8.44
2023-03-18T22:23:02.678Z,8.53
2023-03-18T22:25:52.342Z,8.59
2023-03-18T22:28:40.711Z,8.60
2023-03-18T22:31:29.183Z,8.64
2023-03-18T22:34:22.988Z,8.64
2023-03-18T22:37:16.055Z,8.65
2023-03-18T22:40:05.594Z,8.65
2023-03-18T22:42:56.614Z,8.66
2023-03-18T22:45:45.096Z,8.64
2023-03-18T22:48:33.621Z,8.65
2023-03-18T22:51:25.973Z,8.62
2023-03-18T22:54:17.342Z,8.62
2023-03-18T22:57:05.872Z,8.66
2023-03-18T22:59:54.597Z,8.58
2023-03-18T23:02:43.060Z,7.96
2023-03-18T23:05:32.769Z,7.90
2023-03-18T23:08:22.977Z,7.83
2023-03-18T23:11:11.478Z,7.85
2023-03-18T23:13:59.853Z,7.84
2023-03-18T23:16:48.216Z,7.87
2023-03-18T23:19:36.573Z,7.89
2023-03-18T23:22:27.061Z,7.91
2023-03-18T23:25:18.159Z,7.94
2023-03-18T23:28:06.682Z,7.97
2023-03-18T23:30:55.040Z,8.02
2023-03-18T23:33:43.936Z,8.00
2023-03-18T23:36:32.732Z,8.03
2023-03-18T23:39:21.386Z,8.04
2023-03-18T23:42:12.613Z,8.06
2023-03-18T23:45:01.039Z,8.08
2023-03-18T23:47:49.352Z,8.11
2023-03-18T23:50:37.730Z,8.11
2023-03-18T23:53:26.417Z,8.08
2023-03-18T23:56:15.042Z,8.10
2023-03-18T23:59:04.833Z,8.11
